Burnett, Indiana
Current Conditions -  °F | °C
As of 7:53 PM on Tuesday 21 Oct 2014 (Local Time) from KHUF Reporting Station
Overcast Overcast  
Wind Chill: 53°   Ceiling: 5000
Heat Index: 53°   Visibility: 10mi
Dew Point: 43°   Wind: 8mph
Humidity: 69%   Direction: 10°N
Pressure: 30.17"   Gusts: NA
Location:  39.543°N, 87.3153°W
Report Text: KHUF 212353Z 01007KT 10SM OVC050 12/06 A3017 RMK AO2 SLP215 T01170061 10150 20117 53012 $
Loading
Personal Weather Stations






























Interactive Weather Map
Tropical Storm Tracking
New forecast layout! Learn more

10-Day Weather Forecast

Advertisements
Track Severe Weather on mobile